sensor_id;sensor_type;location;lat;lon;timestamp;pressure;altitude;pressure_sealevel;temperature;humidity
64243;BME280;50573;51.512;5.386;2023-05-20T00:03:27;77900.94;;;13.31;72.96
64243;BME280;50573;51.512;5.386;2023-05-20T00:13:32;77876.94;;;13.20;75.15
64243;BME280;50573;51.512;5.386;2023-05-20T00:23:36;77861.94;;;13.04;76.56
64243;BME280;50573;51.512;5.386;2023-05-20T00:33:41;77853.09;;;12.82;78.55
64243;BME280;50573;51.512;5.386;2023-05-20T00:43:44;77818.63;;;12.69;79.62
64243;BME280;50573;51.512;5.386;2023-05-20T00:53:48;77811.22;;;12.52;80.72
64243;BME280;50573;51.512;5.386;2023-05-20T01:03:52;77784.81;;;12.36;82.08
64243;BME280;50573;51.512;5.386;2023-05-20T01:13:59;77781.50;;;12.36;82.23
64243;BME280;50573;51.512;5.386;2023-05-20T01:24:04;77760.38;;;12.17;83.72
64243;BME280;50573;51.512;5.386;2023-05-20T01:34:08;77755.09;;;12.10;83.97
64243;BME280;50573;51.512;5.386;2023-05-20T01:44:13;77732.97;;;11.93;85.34
64243;BME280;50573;51.512;5.386;2023-05-20T01:54:17;77725.53;;;11.87;86.42
64243;BME280;50573;51.512;5.386;2023-05-20T02:04:22;77731.69;;;11.80;86.91
64243;BME280;50573;51.512;5.386;2023-05-20T02:14:25;77715.28;;;11.68;87.87
64243;BME280;50573;51.512;5.386;2023-05-20T02:24:30;77703.25;;;11.58;88.80
64243;BME280;50573;51.512;5.386;2023-05-20T02:34:33;77679.88;;;11.47;89.99
64243;BME280;50573;51.512;5.386;2023-05-20T02:44:38;77670.59;;;11.36;91.10
64243;BME280;50573;51.512;5.386;2023-05-20T02:54:41;77671.16;;;11.27;92.05
64243;BME280;50573;51.512;5.386;2023-05-20T03:04:46;77667.31;;;11.26;92.52
64243;BME280;50573;51.512;5.386;2023-05-20T03:14:49;77650.19;;;11.20;92.89
64243;BME280;50573;51.512;5.386;2023-05-20T03:24:57;77655.88;;;11.16;93.66
64243;BME280;50573;51.512;5.386;2023-05-20T03:35:01;77639.91;;;11.02;94.04
64243;BME280;50573;51.512;5.386;2023-05-20T03:45:07;77640.91;;;11.00;95.74
64243;BME280;50573;51.512;5.386;2023-05-20T03:55:17;77637.03;;;10.99;96.40
64243;BME280;50573;51.512;5.386;2023-05-20T04:05:23;77640.47;;;11.02;96.36
64243;BME280;50573;51.512;5.386;2023-05-20T04:15:28;77648.47;;;11.09;96.12
64243;BME280;50573;51.512;5.386;2023-05-20T04:25:34;77643.34;;;11.14;96.69
64243;BME280;50573;51.512;5.386;2023-05-20T04:35:37;77674.00;;;11.30;96.37
64243;BME280;50573;51.512;5.386;2023-05-20T04:45:44;77691.28;;;11.47;96.05
64243;BME280;50573;51.512;5.386;2023-05-20T04:55:49;77702.72;;;11.67;94.89
64243;BME280;50573;51.512;5.386;2023-05-20T05:05:56;77742.69;;;11.92;93.84
64243;BME280;50573;51.512;5.386;2023-05-20T05:16:01;77763.81;;;12.20;92.34
64243;BME280;50573;51.512;5.386;2023-05-20T05:26:07;77812.34;;;12.53;90.82
64243;BME280;50573;51.512;5.386;2023-05-20T05:36:11;77838.63;;;12.86;88.86
64243;BME280;50573;51.512;5.386;2023-05-20T05:46:15;77879.78;;;13.22;86.69
64243;BME280;50573;51.512;5.386;2023-05-20T05:56:19;77928.34;;;13.65;85.25
64243;BME280;50573;51.512;5.386;2023-05-20T06:06:24;77960.94;;;13.93;83.34
64243;BME280;50573;51.512;5.386;2023-05-20T06:16:28;77993.69;;;14.25;81.36
64243;BME280;50573;51.512;5.386;2023-05-20T06:26:34;78048.56;;;14.73;79.91
64243;BME280;50573;51.512;5.386;2023-05-20T06:36:39;78074.63;;;14.91;77.79
64243;BME280;50573;51.512;5.386;2023-05-20T06:46:44;78112.34;;;15.24;76.05
64243;BME280;50573;51.512;5.386;2023-05-20T06:56:49;78166.84;;;15.74;74.54
64243;BME280;50573;51.512;5.386;2023-05-20T07:06:56;78212.66;;;16.14;72.43
64243;BME280;50573;51.512;5.386;2023-05-20T07:16:59;78247.00;;;16.44;68.88
64243;BME280;50573;51.512;5.386;2023-05-20T07:27:04;78303.69;;;16.94;67.01
64243;BME280;50573;51.512;5.386;2023-05-20T07:37:07;78330.59;;;17.18;65.95
64243;BME280;50573;51.512;5.386;2023-05-20T07:47:15;78368.41;;;17.51;63.73
64243;BME280;50573;51.512;5.386;2023-05-20T07:57:18;78398.31;;;17.79;62.36
64243;BME280;50573;51.512;5.386;2023-05-20T08:07:23;78419.41;;;17.95;61.02
64243;BME280;50573;51.512;5.386;2023-05-20T08:17:28;78418.22;;;17.94;60.80
64243;BME280;50573;51.512;5.386;2023-05-20T08:27:34;78433.72;;;18.08;57.91
64243;BME280;50573;51.512;5.386;2023-05-20T08:37:38;78480.72;;;18.49;58.72
64243;BME280;50573;51.512;5.386;2023-05-20T08:47:44;78517.41;;;18.81;56.52
64243;BME280;50573;51.512;5.386;2023-05-20T08:57:48;78525.28;;;18.86;55.56
64243;BME280;50573;51.512;5.386;2023-05-20T09:08:02;78537.59;;;19.01;55.14
64243;BME280;50573;51.512;5.386;2023-05-20T09:18:07;78564.50;;;19.25;54.93
64243;BME280;50573;51.512;5.386;2023-05-20T09:28:11;78564.50;;;19.25;54.53
64243;BME280;50573;51.512;5.386;2023-05-20T09:38:14;78614.28;;;19.66;52.42
64243;BME280;50573;51.512;5.386;2023-05-20T09:48:18;78630.22;;;19.78;53.33
64243;BME280;50573;51.512;5.386;2023-05-20T09:58:22;78632.75;;;19.85;54.52
64243;BME280;50573;51.512;5.386;2023-05-20T10:08:41;78610.38;;;19.53;53.64
64243;BME280;50573;51.512;5.386;2023-05-20T10:19:00;78631.63;;;19.84;53.85
64243;BME280;50573;51.512;5.386;2023-05-20T10:29:15;78645.84;;;19.94;51.80
64243;BME280;50573;51.512;5.386;2023-05-20T10:39:23;78680.25;;;20.24;51.36
64243;BME280;50573;51.512;5.386;2023-05-20T10:49:33;78746.22;;;20.82;49.46
64243;BME280;50573;51.512;5.386;2023-05-20T10:59:36;78750.47;;;20.90;49.75
64243;BME280;50573;51.512;5.386;2023-05-20T11:09:48;78778.94;;;21.10;49.22
64243;BME280;50573;51.512;5.386;2023-05-20T11:19:51;78790.06;;;21.25;49.00
64243;BME280;50573;51.512;5.386;2023-05-20T11:29:56;78892.03;;;22.09;48.92
64243;BME280;50573;51.512;5.386;2023-05-20T11:40:03;78945.44;;;22.56;48.16
64243;BME280;50573;51.512;5.386;2023-05-20T11:50:15;78915.09;;;22.32;46.60
64243;BME280;50573;51.512;5.386;2023-05-20T12:00:19;78912.09;;;22.27;47.56
64243;BME280;50573;51.512;5.386;2023-05-20T12:10:23;78905.22;;;22.21;46.28
64243;BME280;50573;51.512;5.386;2023-05-20T12:20:27;78858.38;;;21.84;48.13
64243;BME280;50573;51.512;5.386;2023-05-20T12:30:32;78903.38;;;22.17;48.20
64243;BME280;50573;51.512;5.386;2023-05-20T12:40:36;78920.25;;;22.36;47.04
64243;BME280;50573;51.512;5.386;2023-05-20T12:50:41;78981.25;;;22.92;45.85
64243;BME280;50573;51.512;5.386;2023-05-20T13:00:44;79018.00;;;23.24;45.73
64243;BME280;50573;51.512;5.386;2023-05-20T13:10:48;78985.84;;;22.96;47.98
64243;BME280;50573;51.512;5.386;2023-05-20T13:20:51;79010.31;;;23.12;45.56
64243;BME280;50573;51.512;5.386;2023-05-20T13:30:56;79018.47;;;23.22;45.64
64243;BME280;50573;51.512;5.386;2023-05-20T13:40:59;79016.28;;;23.22;46.37
64243;BME280;50573;51.512;5.386;2023-05-20T13:51:04;78987.34;;;22.92;46.19
64243;BME280;50573;51.512;5.386;2023-05-20T14:01:07;78934.59;;;22.49;48.54
64243;BME280;50573;51.512;5.386;2023-05-20T14:11:14;78969.66;;;22.79;46.56
64243;BME280;50573;51.512;5.386;2023-05-20T14:21:18;78978.94;;;22.90;46.39
64243;BME280;50573;51.512;5.386;2023-05-20T14:31:22;78976.56;;;22.85;46.47
64243;BME280;50573;51.512;5.386;2023-05-20T14:41:26;78960.59;;;22.74;45.53
64243;BME280;50573;51.512;5.386;2023-05-20T14:51:30;78965.53;;;22.73;47.39
64243;BME280;50573;51.512;5.386;2023-05-20T15:01:34;78969.53;;;22.77;46.27
64243;BME280;50573;51.512;5.386;2023-05-20T15:11:38;78956.47;;;22.56;46.37
64243;BME280;50573;51.512;5.386;2023-05-20T15:21:43;78955.28;;;22.67;46.20
64243;BME280;50573;51.512;5.386;2023-05-20T15:31:47;78998.13;;;22.99;46.16
64243;BME280;50573;51.512;5.386;2023-05-20T15:41:51;78886.84;;;22.05;47.71
64243;BME280;50573;51.512;5.386;2023-05-20T15:51:55;78910.25;;;22.23;47.35
64243;BME280;50573;51.512;5.386;2023-05-20T16:02:05;78873.06;;;21.92;47.67
64243;BME280;50573;51.512;5.386;2023-05-20T16:22:13;78826.47;;;21.49;47.98
64243;BME280;50573;51.512;5.386;2023-05-20T16:32:18;78778.50;;;21.12;49.45
64243;BME280;50573;51.512;5.386;2023-05-20T16:42:22;78796.16;;;21.25;48.95
64243;BME280;50573;51.512;5.386;2023-05-20T16:52:26;78820.81;;;21.47;47.89
64243;BME280;50573;51.512;5.386;2023-05-20T17:02:30;78814.63;;;21.44;47.67
64243;BME280;50573;51.512;5.386;2023-05-20T17:12:35;78786.06;;;21.21;48.74
64243;BME280;50573;51.512;5.386;2023-05-20T17:22:38;78776.19;;;21.10;48.36
64243;BME280;50573;51.512;5.386;2023-05-20T17:32:42;78729.13;;;20.57;49.71
64243;BME280;50573;51.512;5.386;2023-05-20T17:42:46;78736.00;;;20.75;50.01
64243;BME280;50573;51.512;5.386;2023-05-20T17:52:50;78706.19;;;20.49;51.88
64243;BME280;50573;51.512;5.386;2023-05-20T18:02:54;78654.53;;;20.04;51.90
64243;BME280;50573;51.512;5.386;2023-05-20T18:13:01;78625.75;;;19.76;53.55
64243;BME280;50573;51.512;5.386;2023-05-20T18:23:05;78581.16;;;19.40;55.14
64243;BME280;50573;51.512;5.386;2023-05-20T18:33:09;78550.75;;;19.13;56.10
64243;BME280;50573;51.512;5.386;2023-05-20T18:43:12;78533.53;;;18.86;57.03
64243;BME280;50573;51.512;5.386;2023-05-20T18:53:17;78494.72;;;18.66;56.96
64243;BME280;50573;51.512;5.386;2023-05-20T19:03:20;78464.34;;;18.40;58.24
64243;BME280;50573;51.512;5.386;2023-05-20T19:13:25;78455.00;;;18.17;59.28
64243;BME280;50573;51.512;5.386;2023-05-20T19:23:28;78429.69;;;18.05;59.85
64243;BME280;50573;51.512;5.386;2023-05-20T19:33:34;78410.31;;;17.78;60.53
64243;BME280;50573;51.512;5.386;2023-05-20T19:43:37;78373.00;;;17.55;61.87
64243;BME280;50573;51.512;5.386;2023-05-20T19:53:41;78378.22;;;17.50;62.03
64243;BME280;50573;51.512;5.386;2023-05-20T20:03:44;78349.50;;;17.34;62.39
64243;BME280;50573;51.512;5.386;2023-05-20T20:13:49;78320.84;;;17.09;63.61
64243;BME280;50573;51.512;5.386;2023-05-20T20:23:52;78300.81;;;16.92;64.05
64243;BME280;50573;51.512;5.386;2023-05-20T20:33:56;78273.78;;;16.66;64.73
64243;BME280;50573;51.512;5.386;2023-05-20T20:43:59;78255.47;;;16.49;65.94
64243;BME280;50573;51.512;5.386;2023-05-20T20:54:05;78254.13;;;16.55;66.43
64243;BME280;50573;51.512;5.386;2023-05-20T21:04:08;78246.56;;;16.46;66.74
64243;BME280;50573;51.512;5.386;2023-05-20T21:14:15;78246.28;;;16.41;67.25
64243;BME280;50573;51.512;5.386;2023-05-20T21:24:18;78229.25;;;16.29;67.66
64243;BME280;50573;51.512;5.386;2023-05-20T21:34:23;78206.78;;;16.07;68.60
64243;BME280;50573;51.512;5.386;2023-05-20T21:44:26;78175.31;;;15.79;70.37
64243;BME280;50573;51.512;5.386;2023-05-20T21:54:30;78159.56;;;15.70;71.12
64243;BME280;50573;51.512;5.386;2023-05-20T22:04:33;78137.69;;;15.49;73.05
64243;BME280;50573;51.512;5.386;2023-05-20T22:14:39;78117.06;;;15.30;74.15
64243;BME280;50573;51.512;5.386;2023-05-20T22:24:42;78106.19;;;15.21;74.61
64243;BME280;50573;51.512;5.386;2023-05-20T22:34:46;78088.34;;;15.03;76.01
64243;BME280;50573;51.512;5.386;2023-05-20T22:44:49;78067.88;;;14.87;77.72
64243;BME280;50573;51.512;5.386;2023-05-20T22:54:54;78063.75;;;14.81;78.04
64243;BME280;50573;51.512;5.386;2023-05-20T23:04:57;78059.91;;;14.71;79.07
64243;BME280;50573;51.512;5.386;2023-05-20T23:15:01;78038.72;;;14.62;79.52
64243;BME280;50573;51.512;5.386;2023-05-20T23:25:05;78023.31;;;14.39;81.45
64243;BME280;50573;51.512;5.386;2023-05-20T23:35:09;78006.00;;;14.31;82.50
64243;BME280;50573;51.512;5.386;2023-05-20T23:45:13;77979.25;;;14.10;84.61
64243;BME280;50573;51.512;5.386;2023-05-20T23:55:18;77987.84;;;14.08;85.79
